Time;durP1;ratioP1;P1;durP2;ratioP2;P2;SDS_P1;SDS_P2;PMS_P1;PMS_P2;Temp;Humidity;BMP_temperature;BMP_pressure;BME280_temperature;BME280_humidity;BME280_pressure;Samples;Min_cycle;Max_cycle;Signal;HPM_P1;HPM_P2
2021/05/19 00:01:27;;;;;;;3.20;2.93;;;9.50;99.90;;;;;;4893898;29;20557;-67
2021/05/19 00:03:53;;;;;;;4.60;4.20;;;9.60;99.90;;;;;;4895095;29;20435;-67
2021/05/19 00:06:18;;;;;;;2.83;2.63;;;9.50;99.90;;;;;;4895312;29;20194;-66
2021/05/19 00:08:44;;;;;;;3.00;2.80;;;9.50;99.90;;;;;;4894799;29;20203;-67
2021/05/19 00:11:10;;;;;;;3.03;2.60;;;9.60;99.90;;;;;;4893901;29;20179;-67
2021/05/19 00:13:36;;;;;;;3.13;2.80;;;9.60;99.90;;;;;;4895114;29;20183;-66
2021/05/19 00:16:04;;;;;;;2.57;2.37;;;9.70;99.90;;;;;;4894976;29;20502;-66
2021/05/19 00:18:30;;;;;;;2.47;2.30;;;9.80;99.90;;;;;;4895056;29;20899;-66
2021/05/19 00:20:55;;;;;;;3.03;2.30;;;9.60;99.90;;;;;;4895013;29;20513;-66
2021/05/19 00:23:21;;;;;;;2.20;2.00;;;9.60;99.90;;;;;;4894933;29;20195;-67
2021/05/19 00:25:47;;;;;;;3.03;2.80;;;9.60;99.90;;;;;;4895109;29;20293;-67
2021/05/19 00:28:12;;;;;;;3.00;2.80;;;9.60;99.90;;;;;;4894865;29;20195;-67
2021/05/19 00:30:38;;;;;;;2.83;2.50;;;9.60;99.90;;;;;;4894414;29;20176;-66
2021/05/19 00:33:05;;;;;;;2.83;2.63;;;9.80;99.90;;;;;;4894888;29;20180;-66
2021/05/19 00:35:31;;;;;;;3.80;3.43;;;9.70;99.90;;;;;;4895440;29;20494;-67
2021/05/19 00:37:57;;;;;;;2.90;2.70;;;9.70;99.90;;;;;;4898518;29;21013;-66
2021/05/19 00:40:22;;;;;;;3.33;2.53;;;9.70;99.90;;;;;;4898526;29;20218;-67
2021/05/19 00:42:48;;;;;;;3.20;3.00;;;9.70;99.90;;;;;;4898424;29;20262;-66
2021/05/19 00:45:14;;;;;;;3.13;2.70;;;9.80;99.90;;;;;;4898370;29;20199;-66
2021/05/19 00:47:42;;;;;;;5.30;2.73;;;9.70;99.90;;;;;;4898323;29;20199;-67
2021/05/19 00:50:14;;;;;;;4.53;3.00;;;9.70;99.90;;;;;;4898008;29;20856;-66
2021/05/19 00:52:39;;;;;;;3.17;2.87;;;9.70;99.90;;;;;;4897971;29;20435;-67
2021/05/19 00:55:06;;;;;;;3.13;2.80;;;9.80;99.90;;;;;;4898173;29;20439;-66
2021/05/19 00:57:32;;;;;;;2.77;2.57;;;9.80;99.90;;;;;;4898771;29;20175;-67
2021/05/19 00:59:59;;;;;;;13.83;3.60;;;9.80;99.90;;;;;;4897597;29;20953;-66
2021/05/19 01:02:24;;;;;;;3.63;3.40;;;9.80;99.90;;;;;;4898060;29;20175;-67
2021/05/19 01:04:50;;;;;;;4.70;3.37;;;9.80;99.90;;;;;;4898012;29;20832;-66
2021/05/19 01:09:41;;;;;;;3.50;3.07;;;9.90;99.90;;;;;;4897521;29;20191;-66
2021/05/19 01:12:15;;;;;;;3.33;3.10;;;10.00;99.90;;;;;;4897571;29;20288;-67
2021/05/19 01:14:41;;;;;;;4.70;3.07;;;10.00;99.90;;;;;;4897366;29;20705;-67
2021/05/19 01:17:08;;;;;;;4.03;3.60;;;10.00;99.90;;;;;;4898150;29;20530;-66
2021/05/19 01:19:39;;;;;;;3.13;2.90;;;10.00;99.90;;;;;;4897630;29;20552;-67
2021/05/19 01:22:12;;;;;;;3.50;3.20;;;10.00;99.90;;;;;;4897740;29;20439;-67
2021/05/19 01:24:39;;;;;;;3.30;3.00;;;10.00;99.90;;;;;;4894587;29;20462;-67
2021/05/19 01:27:07;;;;;;;3.30;3.00;;;9.90;99.90;;;;;;4897499;29;20921;-66
2021/05/19 01:29:33;;;;;;;3.60;3.30;;;9.90;99.90;;;;;;4897674;29;20451;-66
2021/05/19 01:31:58;;;;;;;3.80;3.50;;;9.90;99.90;;;;;;4897506;29;20443;-67
2021/05/19 01:34:24;;;;;;;3.47;3.17;;;9.90;99.90;;;;;;4897656;29;20438;-66
2021/05/19 01:36:50;;;;;;;3.27;2.97;;;9.90;99.90;;;;;;4897195;29;20752;-66
2021/05/19 01:39:15;;;;;;;3.70;3.40;;;9.80;99.90;;;;;;4897115;29;20760;-66
2021/05/19 01:41:41;;;;;;;3.20;3.00;;;9.90;99.90;;;;;;4897265;29;20662;-67
2021/05/19 01:44:15;;;;;;;3.17;2.97;;;9.90;99.90;;;;;;4897215;29;20214;-67
2021/05/19 01:46:42;;;;;;;4.30;3.90;;;9.90;99.90;;;;;;4897138;29;20181;-66
2021/05/19 01:49:08;;;;;;;5.20;3.83;;;9.80;99.90;;;;;;4896973;29;20455;-66
2021/05/19 01:51:36;;;;;;;3.80;3.50;;;9.90;99.90;;;;;;4897388;29;20439;-66
2021/05/19 01:54:03;;;;;;;3.50;3.23;;;9.90;99.90;;;;;;4896870;29;20442;-67
2021/05/19 01:56:29;;;;;;;3.83;3.40;;;9.90;99.90;;;;;;4896955;29;20961;-67
2021/05/19 01:58:55;;;;;;;4.87;3.27;;;9.90;99.90;;;;;;4896805;29;20542;-67
2021/05/19 02:01:21;;;;;;;3.77;3.57;;;9.90;99.90;;;;;;4897322;29;20183;-67
2021/05/19 02:03:47;;;;;;;3.40;3.20;;;9.80;99.90;;;;;;4897213;29;20490;-66
2021/05/19 02:06:13;;;;;;;4.93;3.37;;;9.80;99.90;;;;;;4896831;29;20273;-66
2021/05/19 02:08:38;;;;;;;3.57;3.27;;;9.80;99.90;;;;;;4896756;29;20538;-66
2021/05/19 02:11:04;;;;;;;4.43;3.70;;;9.70;99.90;;;;;;4896535;29;20399;-66
2021/05/19 02:13:29;;;;;;;4.00;3.70;;;9.70;99.90;;;;;;4896950;29;20182;-67
2021/05/19 02:15:55;;;;;;;4.07;3.70;;;9.60;99.90;;;;;;4896451;29;20193;-67
2021/05/19 02:18:21;;;;;;;3.60;3.37;;;9.60;99.90;;;;;;4896736;29;20207;-67
2021/05/19 02:20:46;;;;;;;3.10;2.90;;;9.60;99.90;;;;;;4896242;29;20186;-64
2021/05/19 02:23:12;;;;;;;2.90;2.70;;;9.70;99.90;;;;;;4896341;29;20276;-65
2021/05/19 02:25:37;;;;;;;3.50;3.27;;;9.70;99.90;;;;;;4896280;29;20210;-66
2021/05/19 02:28:03;;;;;;;4.03;3.63;;;9.80;99.90;;;;;;4896287;29;20227;-64
2021/05/19 02:30:30;;;;;;;3.27;3.03;;;9.90;99.90;;;;;;4896652;29;20590;-67
2021/05/19 02:32:56;;;;;;;3.87;3.57;;;9.90;99.90;;;;;;4896454;29;20179;-67
2021/05/19 02:35:22;;;;;;;3.40;2.93;;;9.90;99.90;;;;;;4896249;29;20450;-65
2021/05/19 02:37:47;;;;;;;3.20;2.93;;;9.80;99.90;;;;;;4895264;29;20215;-67
2021/05/19 02:40:15;;;;;;;3.80;3.50;;;9.80;99.90;;;;;;4896682;29;20183;-67
2021/05/19 02:42:41;;;;;;;4.00;3.70;;;9.80;99.90;;;;;;4896393;29;20183;-64
2021/05/19 02:45:07;;;;;;;3.70;3.40;;;9.80;99.90;;;;;;4896451;29;20978;-64
2021/05/19 02:47:33;;;;;;;3.77;3.47;;;9.80;99.90;;;;;;4896180;29;20438;-67
2021/05/19 02:49:59;;;;;;;3.30;3.10;;;9.80;99.90;;;;;;4895762;29;20447;-67
2021/05/19 02:52:24;;;;;;;3.50;3.20;;;9.80;99.90;;;;;;4895652;29;20438;-66
2021/05/19 02:54:50;;;;;;;3.57;3.30;;;9.70;99.90;;;;;;4896216;29;20277;-64
2021/05/19 02:57:16;;;;;;;3.90;3.47;;;9.70;99.90;;;;;;4896076;29;20183;-64
2021/05/19 02:59:41;;;;;;;4.00;3.70;;;9.60;99.90;;;;;;4895318;29;20210;-67
2021/05/19 03:02:07;;;;;;;3.77;3.37;;;9.60;99.90;;;;;;4895485;29;20179;-67
2021/05/19 03:04:32;;;;;;;3.60;3.30;;;9.70;99.90;;;;;;4895819;29;20212;-67
2021/05/19 03:06:59;;;;;;;3.77;3.47;;;9.70;99.90;;;;;;4895807;29;20211;-63
2021/05/19 03:09:24;;;;;;;3.30;3.10;;;9.80;99.90;;;;;;4895647;29;20203;-64
2021/05/19 03:11:50;;;;;;;2.97;2.77;;;9.80;99.90;;;;;;4895583;29;20435;-65
2021/05/19 03:14:15;;;;;;;4.07;3.77;;;9.80;99.90;;;;;;4895852;29;20183;-64
2021/05/19 03:16:41;;;;;;;3.73;3.37;;;9.80;99.90;;;;;;4895815;29;20194;-66
2021/05/19 03:19:08;;;;;;;4.40;3.00;;;9.90;99.90;;;;;;4895304;29;20205;-66
2021/05/19 03:21:34;;;;;;;3.40;3.10;;;9.90;99.90;;;;;;4895303;29;20182;-66
2021/05/19 03:23:59;;;;;;;3.13;2.87;;;9.90;99.90;;;;;;4895281;29;20788;-66
2021/05/19 03:26:25;;;;;;;2.60;2.50;;;9.90;99.90;;;;;;4895562;29;20186;-66
2021/05/19 03:28:51;;;;;;;2.33;2.13;;;9.80;99.90;;;;;;4895694;29;20736;-66
2021/05/19 03:31:17;;;;;;;3.17;2.97;;;9.80;99.90;;;;;;4895296;29;20989;-66
2021/05/19 03:33:42;;;;;;;3.40;2.70;;;9.70;99.90;;;;;;4895655;29;20301;-66
2021/05/19 03:36:08;;;;;;;3.40;3.07;;;9.70;99.90;;;;;;4895518;29;20439;-67
2021/05/19 03:38:35;;;;;;;3.40;3.10;;;9.60;99.90;;;;;;4895324;29;20287;-67
2021/05/19 03:41:02;;;;;;;3.50;3.00;;;9.60;99.90;;;;;;4895270;29;20193;-66
2021/05/19 03:43:28;;;;;;;2.97;2.60;;;9.50;99.90;;;;;;4894588;29;20503;-66
2021/05/19 03:45:54;;;;;;;3.73;3.43;;;9.50;99.90;;;;;;4895160;29;20992;-66
2021/05/19 03:48:19;;;;;;;3.30;3.00;;;9.50;99.90;;;;;;4895203;29;20611;-67
2021/05/19 03:50:45;;;;;;;4.50;3.80;;;9.50;99.90;;;;;;4895531;29;20434;-65
2021/05/19 03:53:11;;;;;;;4.13;2.97;;;9.60;99.90;;;;;;4895344;29;20178;-66
2021/05/19 03:55:37;;;;;;;3.60;3.30;;;9.60;99.90;;;;;;4895621;29;20188;-66
2021/05/19 03:58:04;;;;;;;3.93;3.63;;;9.60;99.90;;;;;;4895344;29;20451;-66
2021/05/19 04:00:33;;;;;;;3.70;3.40;;;9.60;99.90;;;;;;4893541;29;20791;-66
2021/05/19 04:02:59;;;;;;;4.90;3.87;;;9.70;99.90;;;;;;4895100;29;20427;-65
2021/05/19 04:05:26;;;;;;;4.20;3.33;;;9.70;99.90;;;;;;4894626;29;20467;-66
2021/05/19 04:07:53;;;;;;;4.73;4.33;;;9.60;99.90;;;;;;4894475;29;20559;-67
2021/05/19 04:10:19;;;;;;;7.17;6.57;;;9.60;99.90;;;;;;4894922;29;20595;-67
2021/05/19 04:12:48;;;;;;;4.00;3.60;;;9.60;99.90;;;;;;4899080;29;20426;-66
2021/05/19 04:15:14;;;;;;;5.00;3.77;;;9.60;99.90;;;;;;4898455;29;20439;-65
2021/05/19 04:17:40;;;;;;;4.10;3.70;;;9.60;99.90;;;;;;4898353;29;21106;-66
2021/05/19 04:20:06;;;;;;;4.73;4.10;;;9.70;99.90;;;;;;4898516;29;20443;-66
2021/05/19 04:22:31;;;;;;;5.67;4.43;;;9.70;99.90;;;;;;4898962;29;20393;-66
2021/05/19 04:24:57;;;;;;;4.97;3.67;;;9.80;99.90;;;;;;4898799;29;20462;-66
2021/05/19 04:27:22;;;;;;;4.20;3.90;;;9.80;99.90;;;;;;4898645;29;20262;-66
2021/05/19 04:29:48;;;;;;;4.40;4.10;;;9.90;99.90;;;;;;4898466;29;20243;-65
2021/05/19 04:32:13;;;;;;;3.60;3.30;;;10.00;99.90;;;;;;4898595;29;20190;-66
2021/05/19 04:34:39;;;;;;;4.00;3.73;;;10.00;99.90;;;;;;4898345;29;20221;-66
2021/05/19 04:37:06;;;;;;;3.73;3.40;;;10.00;99.90;;;;;;4898502;29;20179;-67
2021/05/19 04:39:32;;;;;;;5.80;3.97;;;10.10;99.90;;;;;;4898498;29;20561;-67
2021/05/19 04:41:58;;;;;;;5.23;4.83;;;10.10;99.90;;;;;;4898301;29;20498;-66
2021/05/19 04:44:23;;;;;;;5.07;4.67;;;10.10;99.90;;;;;;4898345;29;20882;-66
2021/05/19 04:46:49;;;;;;;4.00;3.70;;;10.10;99.90;;;;;;4898225;29;20193;-66
2021/05/19 04:49:15;;;;;;;4.43;4.13;;;10.20;99.90;;;;;;4898118;29;20191;-65
2021/05/19 04:51:40;;;;;;;3.93;3.63;;;10.20;99.90;;;;;;4897979;29;20551;-66
2021/05/19 04:54:07;;;;;;;3.80;3.50;;;10.30;99.90;;;;;;4898453;29;20194;-66
2021/05/19 04:56:33;;;;;;;4.40;4.00;;;10.30;99.90;;;;;;4898106;29;20179;-66
2021/05/19 04:58:58;;;;;;;4.53;4.13;;;10.40;99.90;;;;;;4897777;29;20826;-66
2021/05/19 05:01:24;;;;;;;4.20;3.90;;;10.50;99.90;;;;;;4897753;29;20183;-66
2021/05/19 05:03:49;;;;;;;4.23;3.83;;;10.50;99.90;;;;;;4898179;29;20178;-67
2021/05/19 05:06:15;;;;;;;4.77;4.47;;;10.60;99.90;;;;;;4897482;29;20230;-66
2021/05/19 05:08:41;;;;;;;5.97;5.47;;;10.60;99.90;;;;;;4897922;29;20780;-66
2021/05/19 05:11:07;;;;;;;6.30;5.70;;;10.60;99.90;;;;;;4896550;29;20649;-66
2021/05/19 05:13:32;;;;;;;4.73;4.23;;;10.50;99.90;;;;;;4897320;29;20430;-66
2021/05/19 05:15:58;;;;;;;6.13;5.40;;;10.60;99.90;;;;;;4897765;29;20194;-66
2021/05/19 05:18:23;;;;;;;6.50;4.70;;;10.70;99.90;;;;;;4897851;29;20211;-66
2021/05/19 05:20:49;;;;;;;6.20;5.07;;;10.80;99.90;;;;;;4897679;29;20187;-65
2021/05/19 05:23:14;;;;;;;6.10;5.47;;;10.90;99.90;;;;;;4897367;29;20566;-66
2021/05/19 05:25:40;;;;;;;5.00;4.60;;;11.00;99.90;;;;;;4896263;29;20206;-66
2021/05/19 05:28:05;;;;;;;4.90;4.50;;;11.10;99.90;;;;;;4897315;29;20574;-65
2021/05/19 05:30:31;;;;;;;5.27;4.93;;;11.30;99.90;;;;;;4896903;29;20183;-65
2021/05/19 05:32:56;;;;;;;5.23;4.77;;;11.10;99.90;;;;;;4897723;29;20191;-66
2021/05/19 05:35:22;;;;;;;4.87;4.47;;;11.20;99.90;;;;;;4897754;29;20186;-66
2021/05/19 05:37:48;;;;;;;7.37;5.60;;;11.20;99.90;;;;;;4896883;29;20659;-67
2021/05/19 05:40:13;;;;;;;9.07;8.13;;;11.30;99.90;;;;;;4897338;29;20258;-65
2021/05/19 05:42:39;;;;;;;6.20;5.70;;;11.30;99.90;;;;;;4897399;29;20175;-65
2021/05/19 05:45:06;;;;;;;4.60;4.20;;;11.30;99.90;;;;;;4897199;29;20293;-65
2021/05/19 05:47:33;;;;;;;5.57;4.83;;;11.40;99.90;;;;;;4896949;29;20909;-66
2021/05/19 05:50:02;;;;;;;5.00;4.60;;;11.50;99.90;;;;;;4896931;29;20439;-67
2021/05/19 05:52:27;;;;;;;5.57;4.97;;;11.60;99.90;;;;;;4897708;29;20424;-66
2021/05/19 05:54:52;;;;;;;8.37;5.37;;;11.70;99.90;;;;;;4897710;29;21049;-66
2021/05/19 05:57:18;;;;;;;5.17;4.80;;;11.70;99.90;;;;;;4897483;29;20242;-66
2021/05/19 05:59:44;;;;;;;5.77;5.37;;;11.80;99.90;;;;;;4897159;29;20175;-66
2021/05/19 06:02:09;;;;;;;4.93;4.57;;;11.90;99.90;;;;;;4897526;29;20178;-66
2021/05/19 06:04:35;;;;;;;5.03;4.53;;;12.10;99.90;;;;;;4897758;29;20617;-67
2021/05/19 06:07:00;;;;;;;4.87;4.57;;;12.30;99.90;;;;;;4897348;29;20172;-65
2021/05/19 06:09:26;;;;;;;4.40;4.00;;;12.40;99.90;;;;;;4897108;29;20205;-65
2021/05/19 06:11:51;;;;;;;4.50;4.20;;;12.50;99.90;;;;;;4897779;29;20701;-65
2021/05/19 06:14:18;;;;;;;4.30;3.90;;;12.60;99.90;;;;;;4897174;29;20555;-66
2021/05/19 06:16:45;;;;;;;4.67;4.27;;;12.60;99.90;;;;;;4897184;29;20238;-67
2021/05/19 06:19:10;;;;;;;5.83;4.53;;;12.30;99.90;;;;;;4895542;29;20451;-66
2021/05/19 06:21:36;;;;;;;5.20;4.80;;;12.20;99.90;;;;;;4893669;29;20940;-66
2021/05/19 06:24:02;;;;;;;5.00;4.70;;;12.20;99.90;;;;;;4872416;29;20191;-65
2021/05/19 06:26:27;;;;;;;4.77;4.37;;;12.30;99.90;;;;;;4872963;29;20528;-67
2021/05/19 06:28:53;;;;;;;5.53;4.90;;;12.70;99.90;;;;;;4901579;29;20231;-65
2021/05/19 06:31:18;;;;;;;5.03;4.00;;;13.00;99.90;;;;;;4893402;29;20179;-66
2021/05/19 06:33:44;;;;;;;4.80;4.40;;;13.30;99.90;;;;;;4889356;29;20179;-66
2021/05/19 06:36:09;;;;;;;6.67;4.13;;;13.70;99.90;;;;;;4893323;29;20179;-65
2021/05/19 06:38:35;;;;;;;4.50;4.07;;;13.90;99.90;;;;;;4874885;29;20219;-66
2021/05/19 06:41:00;;;;;;;4.70;4.30;;;13.90;99.90;;;;;;4883772;29;20669;-65
2021/05/19 06:43:26;;;;;;;4.23;3.80;;;14.00;99.90;;;;;;4890188;29;20214;-66
2021/05/19 06:45:52;;;;;;;5.30;4.80;;;14.00;99.90;;;;;;4893526;29;20285;-67
2021/05/19 06:48:20;;;;;;;5.07;4.67;;;14.30;99.90;;;;;;4893381;29;20199;-66
2021/05/19 06:50:46;;;;;;;4.23;3.83;;;14.40;99.90;;;;;;4893394;29;20175;-66
2021/05/19 06:53:13;;;;;;;4.87;4.40;;;14.60;99.90;;;;;;4889952;29;20438;-66
2021/05/19 06:55:39;;;;;;;6.00;4.93;;;14.70;99.90;;;;;;4893606;29;20185;-66
2021/05/19 06:58:05;;;;;;;4.13;3.83;;;14.60;99.90;;;;;;4893268;29;20446;-66
2021/05/19 07:00:31;;;;;;;4.40;3.90;;;14.50;99.90;;;;;;4893258;29;20415;-64
2021/05/19 07:02:57;;;;;;;3.70;3.20;;;14.40;99.90;;;;;;4890221;29;20956;-66
2021/05/19 07:05:22;;;;;;;3.60;3.30;;;14.80;99.90;;;;;;4893149;29;20498;-66
2021/05/19 07:07:48;;;;;;;3.33;2.97;;;15.30;99.90;;;;;;4893166;29;20681;-66
2021/05/19 07:10:14;;;;;;;3.40;3.07;;;15.50;99.90;;;;;;4893080;29;20182;-66
2021/05/19 07:12:40;;;;;;;4.80;3.33;;;15.70;99.90;;;;;;4890701;29;20178;-67
2021/05/19 07:15:11;;;;;;;2.93;2.73;;;16.10;99.90;;;;;;4891730;29;20434;-65
2021/05/19 07:17:37;;;;;;;5.00;2.60;;;16.50;99.90;;;;;;4893053;29;20242;-66
2021/05/19 07:20:05;;;;;;;4.73;3.00;;;16.70;99.90;;;;;;4892678;29;20430;-66
2021/05/19 07:22:31;;;;;;;4.20;2.90;;;16.70;99.90;;;;;;4891759;29;20430;-65
2021/05/19 07:24:57;;;;;;;3.27;2.97;;;16.20;99.90;;;;;;4890715;29;20762;-66
2021/05/19 07:27:23;;;;;;;22.00;4.47;;;15.50;99.90;;;;;;4892633;29;20823;-66
2021/05/19 07:29:48;;;;;;;3.53;3.33;;;14.90;99.90;;;;;;4892942;29;20633;-66
2021/05/19 07:32:14;;;;;;;5.00;3.20;;;14.50;99.90;;;;;;4892794;29;20183;-66
2021/05/19 07:34:39;;;;;;;4.63;3.23;;;14.30;99.90;;;;;;4889657;29;20191;-65
2021/05/19 07:37:05;;;;;;;3.57;3.37;;;14.40;99.90;;;;;;4893068;29;20211;-66
2021/05/19 07:39:30;;;;;;;5.40;4.33;;;14.40;99.90;;;;;;4892572;29;20703;-66
2021/05/19 07:41:56;;;;;;;4.97;3.47;;;14.60;99.90;;;;;;4892405;29;20186;-66
2021/05/19 07:44:22;;;;;;;6.73;3.20;;;14.80;99.90;;;;;;4889334;29;20621;-66
2021/05/19 07:46:47;;;;;;;3.13;2.93;;;14.90;99.90;;;;;;4892501;29;20175;-65
2021/05/19 07:49:14;;;;;;;5.13;3.53;;;15.20;99.90;;;;;;4892579;29;20258;-66
2021/05/19 07:51:40;;;;;;;4.50;4.10;;;15.00;99.90;;;;;;4892639;29;20187;-66
2021/05/19 07:54:06;;;;;;;4.10;3.80;;;14.90;99.90;;;;;;4889288;29;20914;-66
2021/05/19 07:59:06;;;;;;;4.60;4.20;;;15.40;99.90;;;;;;4892389;29;20451;-66
2021/05/19 08:04:03;;;;;;;3.70;3.40;;;15.30;99.90;;;;;;4888825;29;20438;-66
2021/05/19 08:06:28;;;;;;;3.00;2.80;;;15.60;99.90;;;;;;4891854;29;20454;-65
2021/05/19 08:08:54;;;;;;;7.03;4.20;;;15.40;99.90;;;;;;4891948;29;20207;-66
2021/05/19 08:11:20;;;;;;;4.63;3.63;;;15.40;99.90;;;;;;4892526;29;20222;-66
2021/05/19 08:13:48;;;;;;;4.53;3.43;;;15.20;99.90;;;;;;4889053;29;20190;-66
2021/05/19 08:16:15;;;;;;;4.33;3.00;;;15.20;99.90;;;;;;4892740;29;20847;-65
2021/05/19 08:18:41;;;;;;;4.50;3.50;;;15.50;99.90;;;;;;4892036;29;20957;-66
2021/05/19 08:21:07;;;;;;;4.90;3.90;;;16.00;99.90;;;;;;4892191;29;20981;-66
2021/05/19 08:23:33;;;;;;;3.80;3.43;;;16.20;99.90;;;;;;4889294;29;20442;-66
2021/05/19 08:25:59;;;;;;;3.10;2.90;;;16.10;99.90;;;;;;4892434;29;20219;-66
2021/05/19 08:28:25;;;;;;;4.27;3.83;;;15.90;99.90;;;;;;4892598;29;20514;-66
2021/05/19 08:30:51;;;;;;;3.17;2.90;;;16.00;99.90;;;;;;4892260;29;20578;-66
2021/05/19 08:33:17;;;;;;;7.00;5.03;;;16.20;99.90;;;;;;4887738;29;20538;-65
2021/05/19 08:35:42;;;;;;;6.37;5.87;;;16.10;99.90;;;;;;4892205;29;20578;-65
2021/05/19 08:38:08;;;;;;;7.20;3.80;;;16.10;99.90;;;;;;4891925;29;20214;-65
2021/05/19 08:40:34;;;;;;;3.47;3.17;;;15.90;99.90;;;;;;4892427;29;20926;-65
2021/05/19 08:43:00;;;;;;;3.60;3.30;;;16.40;99.90;;;;;;4889018;29;20199;-65
2021/05/19 08:45:26;;;;;;;3.50;3.30;;;16.80;99.90;;;;;;4891609;29;20482;-65
2021/05/19 08:48:05;;;;;;;3.47;2.97;;;17.00;99.90;;;;;;4891696;29;20692;-65
2021/05/19 08:50:33;;;;;;;3.10;2.90;;;17.30;99.90;;;;;;4892147;29;20505;-66
2021/05/19 08:52:59;;;;;;;2.80;2.60;;;17.90;99.90;;;;;;4889151;29;20427;-66
2021/05/19 08:55:27;;;;;;;3.80;3.10;;;18.20;99.90;;;;;;4891847;29;20431;-65
2021/05/19 08:57:53;;;;;;;4.23;3.03;;;17.90;99.90;;;;;;4894243;29;20624;-66
2021/05/19 09:00:20;;;;;;;3.73;3.40;;;18.10;99.90;;;;;;4894831;29;20865;-66
2021/05/19 09:03:12;;;;;;;3.30;3.07;;;17.70;99.90;;;;;;4892689;29;20439;-65
2021/05/19 09:05:39;;;;;;;3.57;3.00;;;17.30;99.90;;;;;;4876835;29;20464;-65
2021/05/19 09:08:11;;;;;;;7.10;6.40;;;17.70;99.90;;;;;;4876487;29;20495;-65
2021/05/19 09:10:42;;;;;;;4.03;3.60;;;18.20;99.90;;;;;;4876473;29;20428;-65
2021/05/19 09:13:41;;;;;;;5.63;3.07;;;18.10;99.90;;;;;;4879163;29;20483;-65
2021/05/19 09:16:07;;;;;;;4.20;3.90;;;18.10;99.90;;;;;;4894236;29;20443;-65
2021/05/19 09:18:54;;;;;;;2.67;2.30;;;18.10;99.90;;;;;;4894545;29;20466;-65
2021/05/19 09:21:40;;;;;;;2.73;2.23;;;18.40;99.90;;;;;;4885907;29;20465;-65
2021/05/19 09:24:11;;;;;;;4.93;2.57;;;18.70;99.90;;;;;;4885367;29;20549;-65
2021/05/19 09:27:01;;;;;;;1.73;1.63;;;18.40;99.90;;;;;;4880183;29;20739;-65
2021/05/19 09:29:34;;;;;;;2.60;2.37;;;18.20;99.90;;;;;;4894269;29;20463;-65
2021/05/19 09:32:13;;;;;;;2.13;2.03;;;18.60;99.90;;;;;;4894119;29;20948;-65
2021/05/19 09:34:44;;;;;;;2.30;1.80;;;18.40;99.90;;;;;;4884055;29;20479;-65
2021/05/19 09:37:30;;;;;;;2.20;2.00;;;18.50;99.90;;;;;;4885651;29;20456;-65
2021/05/19 09:39:55;;;;;;;1.90;1.80;;;18.90;99.20;;;;;;4885691;29;20517;-67
2021/05/19 09:42:26;;;;;;;3.37;1.83;;;19.50;98.70;;;;;;4888789;29;20443;-65
2021/05/19 09:44:55;;;;;;;3.07;2.60;;;20.30;96.60;;;;;;4881251;29;20271;-65
2021/05/19 09:47:39;;;;;;;1.90;1.80;;;20.70;95.10;;;;;;4886645;29;20443;-63
2021/05/19 09:50:06;;;;;;;2.30;2.10;;;21.70;91.50;;;;;;4892498;29;20446;-65
2021/05/19 09:52:32;;;;;;;1.80;1.60;;;21.50;87.50;;;;;;4883413;29;20539;-65
2021/05/19 09:55:07;;;;;;;2.20;1.33;;;21.70;81.40;;;;;;4891999;29;20854;-65
2021/05/19 09:57:44;;;;;;;1.97;1.87;;;22.30;79.80;;;;;;4892540;29;20289;-64
2021/05/19 10:00:12;;;;;;;1.63;1.40;;;23.30;76.90;;;;;;4890469;29;21223;-65
2021/05/19 10:02:39;;;;;;;1.10;1.00;;;23.30;67.40;;;;;;4889919;29;20443;-65
2021/05/19 10:05:11;;;;;;;1.30;1.20;;;22.80;66.50;;;;;;4892482;29;20473;-66
2021/05/19 10:07:37;;;;;;;2.20;1.17;;;23.50;65.20;;;;;;4892243;29;20965;-65
2021/05/19 10:10:04;;;;;;;3.37;1.20;;;24.50;61.60;;;;;;4890617;29;20473;-63
2021/05/19 10:12:30;;;;;;;1.43;1.10;;;25.50;59.00;;;;;;4885280;29;20443;-63
2021/05/19 10:14:59;;;;;;;1.80;1.17;;;25.40;55.20;;;;;;4889547;29;20903;-63
2021/05/19 10:17:24;;;;;;;4.13;3.83;;;25.90;54.60;;;;;;4887558;29;21016;-63
2021/05/19 10:19:55;;;;;;;19.47;17.50;;;26.00;53.10;;;;;;4892842;29;20457;-63
2021/05/19 10:22:21;;;;;;;4.63;3.57;;;25.80;52.30;;;;;;4893061;29;20649;-63
2021/05/19 10:24:49;;;;;;;5.13;4.70;;;26.80;49.60;;;;;;4883860;29;20570;-63
2021/05/19 10:27:18;;;;;;;6.53;3.10;;;26.60;47.80;;;;;;4889402;29;20451;-63
2021/05/19 10:29:50;;;;;;;1.93;1.83;;;26.40;48.70;;;;;;4891044;29;20440;-63
2021/05/19 10:32:21;;;;;;;4.40;4.00;;;26.70;48.50;;;;;;4885022;29;20451;-63
2021/05/19 10:34:48;;;;;;;4.43;2.13;;;28.00;49.00;;;;;;4877243;29;20443;-63
2021/05/19 10:37:26;;;;;;;2.53;1.80;;;28.30;44.60;;;;;;4883447;29;20459;-63
2021/05/19 10:40:18;;;;;;;4.47;3.80;;;28.40;44.30;;;;;;4886183;29;20454;-64
2021/05/19 10:42:54;;;;;;;3.00;2.80;;;29.50;44.60;;;;;;4877417;29;20440;-63
2021/05/19 10:45:20;;;;;;;4.33;1.97;;;30.20;42.70;;;;;;4890262;29;20498;-64
2021/05/19 10:47:47;;;;;;;1.60;1.50;;;28.80;43.20;;;;;;4881213;29;20483;-64
2021/05/19 10:50:25;;;;;;;1.37;1.27;;;29.60;42.00;;;;;;4889380;29;20979;-63
2021/05/19 10:58:53;;;;;;;2.50;1.60;;;28.60;41.10;;;;;;4886503;29;20483;-64
2021/05/19 11:01:38;;;;;;;2.57;2.30;;;29.10;41.20;;;;;;4884300;29;20945;-63
2021/05/19 11:04:17;;;;;;;4.00;2.10;;;30.20;40.70;;;;;;4889683;29;21264;-64
2021/05/19 11:06:58;;;;;;;2.60;1.47;;;30.30;40.00;;;;;;4889920;29;20506;-63
2021/05/19 11:09:25;;;;;;;5.00;1.40;;;31.20;38.70;;;;;;4892012;29;20457;-64
2021/05/19 11:12:02;;;;;;;1.77;1.17;;;29.30;39.50;;;;;;4892223;29;20431;-63
2021/05/19 11:14:46;;;;;;;2.57;1.43;;;28.60;40.60;;;;;;4891960;29;20534;-63
2021/05/19 11:17:19;;;;;;;3.63;1.20;;;29.30;38.10;;;;;;4892306;29;20461;-63
2021/05/19 11:19:45;;;;;;;6.73;1.30;;;30.30;36.40;;;;;;4891873;29;20467;-64
2021/05/19 11:22:13;;;;;;;1.87;1.23;;;30.50;37.80;;;;;;4891980;29;20478;-63
2021/05/19 11:24:59;;;;;;;2.80;1.30;;;31.30;36.60;;;;;;4892069;29;20229;-64
2021/05/19 11:27:27;;;;;;;2.73;2.53;;;31.30;36.60;;;;;;4892028;29;21039;-63
2021/05/19 11:29:54;;;;;;;1.60;1.33;;;29.60;36.40;;;;;;4892262;29;20450;-64
2021/05/19 11:32:22;;;;;;;2.60;1.77;;;30.20;35.80;;;;;;4886750;29;20540;-64
2021/05/19 11:34:48;;;;;;;4.40;1.30;;;28.80;37.00;;;;;;4890593;29;20809;-64
2021/05/19 11:37:15;;;;;;;1.57;1.40;;;28.40;38.20;;;;;;4881935;29;20440;-67
2021/05/19 11:39:52;;;;;;;4.03;3.53;;;29.20;37.50;;;;;;4884412;29;20892;-64
2021/05/19 11:42:27;;;;;;;2.50;2.30;;;28.60;37.50;;;;;;4883346;29;20529;-63
2021/05/19 11:45:00;;;;;;;3.27;1.47;;;27.90;38.10;;;;;;4882629;29;20506;-63
2021/05/19 11:47:29;;;;;;;2.20;1.40;;;27.40;38.60;;;;;;4892078;29;20431;-63
2021/05/19 11:50:03;;;;;;;1.40;1.27;;;26.70;39.50;;;;;;4890846;29;20797;-66
2021/05/19 11:52:58;;;;;;;2.43;1.60;;;26.10;40.20;;;;;;4891272;29;20434;-65
2021/05/19 11:55:27;;;;;;;3.27;2.20;;;25.60;40.20;;;;;;4892072;29;20498;-64
2021/05/19 11:58:02;;;;;;;3.47;1.80;;;26.90;40.50;;;;;;4891770;29;20465;-64
2021/05/19 12:00:40;;;;;;;2.13;1.50;;;29.50;38.30;;;;;;4890912;29;20843;-64
2021/05/19 12:03:06;;;;;;;2.70;1.47;;;30.70;37.10;;;;;;4890678;29;20856;-64
2021/05/19 12:06:06;;;;;;;3.00;2.07;;;32.90;34.80;;;;;;4886571;29;20467;-64
2021/05/19 12:08:34;;;;;;;2.20;2.10;;;34.60;33.10;;;;;;4885133;29;20471;-64
2021/05/19 12:11:18;;;;;;;3.97;1.63;;;34.00;32.60;;;;;;4890130;29;20926;-64
2021/05/19 12:14:10;;;;;;;2.60;1.97;;;33.80;33.80;;;;;;4891789;29;20447;-64
2021/05/19 12:16:44;;;;;;;1.70;1.60;;;34.20;33.00;;;;;;4889303;29;20435;-64
2021/05/19 12:19:10;;;;;;;2.37;1.50;;;35.30;31.20;;;;;;4891513;29;20473;-64
2021/05/19 12:21:40;;;;;;;2.23;1.60;;;34.40;31.00;;;;;;4890733;29;20447;-64
2021/05/19 12:24:07;;;;;;;2.30;2.10;;;35.10;31.40;;;;;;4890994;29;20443;-64
2021/05/19 12:26:35;;;;;;;2.10;1.73;;;36.60;30.80;;;;;;4891987;29;20643;-64
2021/05/19 12:29:01;;;;;;;2.10;1.53;;;35.80;29.50;;;;;;4891487;29;20470;-64
2021/05/19 12:31:33;;;;;;;2.73;1.40;;;35.70;29.60;;;;;;4891982;29;20470;-64
2021/05/19 12:33:59;;;;;;;3.00;1.70;;;36.70;29.40;;;;;;4895373;29;20435;-64
2021/05/19 12:36:33;;;;;;;1.73;1.63;;;36.80;29.40;;;;;;4889229;29;20451;-64
2021/05/19 12:39:01;;;;;;;4.27;1.50;;;34.00;29.30;;;;;;4868393;29;20485;-65
2021/05/19 12:41:42;;;;;;;2.80;1.60;;;30.30;31.30;;;;;;4883599;29;20474;-65
2021/05/19 12:44:09;;;;;;;1.60;1.30;;;28.40;34.00;;;;;;4894059;29;21080;-66
2021/05/19 12:46:35;;;;;;;1.57;1.47;;;26.90;34.60;;;;;;4892826;29;20466;-65
2021/05/19 12:49:06;;;;;;;2.70;1.60;;;27.30;34.80;;;;;;4892163;29;20526;-70
2021/05/19 12:51:51;;;;;;;4.20;1.40;;;26.60;34.80;;;;;;4888493;29;20198;-69
2021/05/19 12:54:23;;;;;;;1.53;1.30;;;27.60;34.90;;;;;;4886441;29;21033;-68
2021/05/19 12:57:03;;;;;;;3.30;1.80;;;28.10;34.50;;;;;;4887721;29;21268;-67
2021/05/19 12:59:49;;;;;;;3.50;1.67;;;30.00;34.60;;;;;;4892378;29;20454;-68
2021/05/19 13:02:14;;;;;;;2.37;2.00;;;31.70;32.10;;;;;;4894635;29;20431;-68
2021/05/19 13:04:49;;;;;;;3.37;1.93;;;30.40;32.30;;;;;;4893870;29;20470;-69
2021/05/19 13:07:17;;;;;;;2.07;1.40;;;28.10;33.20;;;;;;4890232;29;20212;-68
2021/05/19 13:09:46;;;;;;;3.90;1.40;;;26.70;35.00;;;;;;4894127;29;20451;-70